createdAt,value
2022-11-04T00:02:10.554Z,6.22
2022-11-04T00:04:38.138Z,6.53
2022-11-04T00:07:25.868Z,6.00
2022-11-04T00:09:53.546Z,5.95
2022-11-04T00:12:27.486Z,5.82
2022-11-04T00:15:15.147Z,4.90
2022-11-04T00:17:42.896Z,4.80
2022-11-04T00:20:29.234Z,5.18
2022-11-04T00:23:16.599Z,4.88
2022-11-04T00:26:02.860Z,4.88
2022-11-04T00:28:42.864Z,5.30
2022-11-04T00:31:29.442Z,4.63
2022-11-04T00:33:58.833Z,4.80
2022-11-04T00:36:26.813Z,4.63
2022-11-04T00:38:54.437Z,4.65
2022-11-04T00:41:29.043Z,4.10
2022-11-04T00:44:01.939Z,4.10
2022-11-04T00:46:31.685Z,4.22
2022-11-04T00:48:59.799Z,4.05
2022-11-04T00:51:28.207Z,3.63
2022-11-04T00:53:58.963Z,4.30
2022-11-04T00:56:28.021Z,3.92
2022-11-04T00:58:55.673Z,4.20
2022-11-04T01:01:23.400Z,3.88
2022-11-04T01:03:53.230Z,3.83
2022-11-04T01:06:24.217Z,3.40
2022-11-04T01:09:04.590Z,3.33
2022-11-04T01:11:32.499Z,3.25
2022-11-04T01:14:00.287Z,3.30
2022-11-04T01:16:29.822Z,3.25
2022-11-04T01:18:58.059Z,3.53
2022-11-04T01:21:25.668Z,3.22
2022-11-04T01:23:53.510Z,3.33
2022-11-04T01:26:23.482Z,3.25
2022-11-04T01:28:54.706Z,3.38
2022-11-04T01:31:25.447Z,4.10
2022-11-04T01:33:55.995Z,3.47
2022-11-04T01:36:26.558Z,3.40
2022-11-04T01:38:57.504Z,3.78
2022-11-04T01:41:28.704Z,3.50
2022-11-04T01:44:16.608Z,5.53
2022-11-04T01:46:51.013Z,6.10
2022-11-04T01:49:50.670Z,5.93
2022-11-04T01:52:25.433Z,6.18
2022-11-04T01:54:55.921Z,5.65
2022-11-04T01:57:30.668Z,5.22
2022-11-04T02:00:01.604Z,5.07
2022-11-04T02:02:50.006Z,7.53
2022-11-04T02:05:18.647Z,6.88
2022-11-04T02:07:52.137Z,4.35
2022-11-04T02:10:23.547Z,3.92
2022-11-04T02:12:52.360Z,4.30
2022-11-04T02:15:40.662Z,4.63
2022-11-04T02:18:17.194Z,5.03
2022-11-04T02:20:59.996Z,4.45
2022-11-04T02:23:59.180Z,5.03
2022-11-04T02:27:18.087Z,5.20
2022-11-04T02:29:57.190Z,5.25
2022-11-04T02:32:51.772Z,5.75
2022-11-04T02:35:25.725Z,4.63
2022-11-04T02:38:24.212Z,5.15
2022-11-04T02:40:52.084Z,4.85
2022-11-04T02:43:36.316Z,4.28
2022-11-04T02:46:46.316Z,4.27
2022-11-04T02:49:21.018Z,4.50
2022-11-04T02:52:03.135Z,4.03
2022-11-04T02:54:42.301Z,3.80
2022-11-04T02:57:16.131Z,3.58
2022-11-04T03:00:02.053Z,4.60
2022-11-04T03:02:44.554Z,5.00
2022-11-04T03:05:20.447Z,4.95
2022-11-04T03:07:52.813Z,4.45
2022-11-04T03:10:29.000Z,5.95
2022-11-04T03:13:07.113Z,5.15
2022-11-04T03:15:38.824Z,5.90
2022-11-04T03:18:21.502Z,6.07
2022-11-04T03:20:51.244Z,6.90
2022-11-04T03:23:19.665Z,5.80
2022-11-04T03:25:50.959Z,5.38
2022-11-04T03:28:41.611Z,5.43
2022-11-04T03:31:18.035Z,5.38
2022-11-04T03:33:50.494Z,5.35
2022-11-04T03:36:19.815Z,5.75
2022-11-04T03:38:50.734Z,5.78
2022-11-04T03:41:25.814Z,5.78
2022-11-04T03:43:53.479Z,5.53
2022-11-04T03:46:22.544Z,5.70
2022-11-04T03:48:53.248Z,6.22
2022-11-04T03:51:21.030Z,6.43
2022-11-04T03:53:48.970Z,6.40
2022-11-04T03:56:35.520Z,6.75
2022-11-04T03:59:18.113Z,5.65
2022-11-04T04:01:57.382Z,6.75
2022-11-04T04:04:39.007Z,7.43
2022-11-04T04:07:16.859Z,6.85
2022-11-04T04:09:55.972Z,6.80
2022-11-04T04:15:20.024Z,7.32
2022-11-04T04:17:55.246Z,7.22
2022-11-04T04:20:25.686Z,7.65
2022-11-04T04:23:03.972Z,7.72
2022-11-04T04:25:51.333Z,6.88
2022-11-04T04:28:20.775Z,7.13
2022-11-04T04:30:48.976Z,6.97
2022-11-04T04:33:20.283Z,7.25
2022-11-04T04:35:54.380Z,7.38
2022-11-04T04:38:44.754Z,7.15
2022-11-04T04:41:39.572Z,7.20
2022-11-04T04:44:39.244Z,7.88
2022-11-04T04:47:09.633Z,6.73
2022-11-04T04:49:37.189Z,7.13
2022-11-04T04:52:08.240Z,7.18
2022-11-04T04:54:36.032Z,6.97
2022-11-04T04:57:03.909Z,6.32
2022-11-04T04:59:31.474Z,6.45
2022-11-04T05:01:59.339Z,7.15
2022-11-04T05:04:27.052Z,7.13
2022-11-04T05:06:55.826Z,7.15
2022-11-04T05:09:23.527Z,6.85
2022-11-04T05:11:51.424Z,6.03
2022-11-04T05:14:20.372Z,6.10
2022-11-04T05:16:47.953Z,6.47
2022-11-04T05:19:16.668Z,7.05
2022-11-04T05:21:44.230Z,6.70
2022-11-04T05:24:12.707Z,6.35
2022-11-04T05:26:40.577Z,6.95
2022-11-04T05:29:09.926Z,7.28
2022-11-04T05:31:37.759Z,6.20
2022-11-04T05:34:06.040Z,6.82
2022-11-04T05:36:34.145Z,7.03
2022-11-04T05:39:03.225Z,6.13
2022-11-04T05:41:31.057Z,6.70
2022-11-04T05:44:03.843Z,6.57
2022-11-04T05:46:31.940Z,6.65
2022-11-04T05:49:02.829Z,6.78
2022-11-04T05:51:30.690Z,6.97
2022-11-04T05:53:58.325Z,7.07
2022-11-04T05:56:26.410Z,6.95
2022-11-04T05:58:55.414Z,7.10
2022-11-04T06:01:30.323Z,7.05
2022-11-04T06:04:00.638Z,7.45
2022-11-04T06:06:31.370Z,7.13
2022-11-04T06:09:00.738Z,6.88
2022-11-04T06:11:30.397Z,7.53
2022-11-04T06:13:58.559Z,7.43
2022-11-04T06:16:29.551Z,8.15
2022-11-04T06:19:01.491Z,7.90
2022-11-04T06:21:34.162Z,8.27
2022-11-04T06:24:02.829Z,8.40
2022-11-04T06:26:31.446Z,8.30
2022-11-04T06:28:59.209Z,8.45
2022-11-04T06:31:26.929Z,14.43
2022-11-04T06:33:54.841Z,10.68
2022-11-04T06:36:22.827Z,9.38
2022-11-04T06:38:50.640Z,9.63
2022-11-04T06:41:19.245Z,9.38
2022-11-04T06:43:47.065Z,13.45
2022-11-04T06:46:42.004Z,11.00
2022-11-04T06:49:17.912Z,9.82
2022-11-04T06:51:48.375Z,9.63
2022-11-04T06:54:17.640Z,9.60
2022-11-04T06:56:46.254Z,10.25
2022-11-04T06:59:19.558Z,9.40
2022-11-04T07:01:49.651Z,9.68
2022-11-04T07:04:18.019Z,9.75
2022-11-04T07:06:46.647Z,12.23
2022-11-04T07:09:15.689Z,10.13
2022-11-04T07:11:45.108Z,9.43
2022-11-04T07:14:13.442Z,8.95
2022-11-04T07:16:41.405Z,9.38
2022-11-04T07:19:09.221Z,8.95
2022-11-04T07:21:36.838Z,9.25
2022-11-04T07:24:04.893Z,9.68
2022-11-04T07:26:32.404Z,9.27
2022-11-04T07:29:01.180Z,8.88
2022-11-04T07:31:28.941Z,9.23
2022-11-04T07:33:56.926Z,8.20
2022-11-04T07:36:24.434Z,8.77
2022-11-04T07:38:51.987Z,8.48
2022-11-04T07:41:19.802Z,9.80
2022-11-04T07:43:51.650Z,9.13
2022-11-04T07:46:20.525Z,9.70
2022-11-04T07:48:48.357Z,9.23
2022-11-04T07:51:18.086Z,35.05
2022-11-04T07:56:14.768Z,9.90
2022-11-04T07:58:43.272Z,9.68
2022-11-04T08:01:16.606Z,9.45
2022-11-04T08:03:44.543Z,9.75
2022-11-04T08:06:14.493Z,9.88
2022-11-04T08:08:44.880Z,11.10
2022-11-04T08:11:17.747Z,11.25
2022-11-04T08:13:47.686Z,11.23
2022-11-04T08:16:19.045Z,11.18
2022-11-04T08:18:52.342Z,11.15
2022-11-04T08:21:21.238Z,11.18
2022-11-04T08:23:51.473Z,11.68
2022-11-04T08:26:20.354Z,11.40
2022-11-04T08:28:48.269Z,11.63
2022-11-04T08:31:25.426Z,10.80
2022-11-04T08:33:54.864Z,10.70
2022-11-04T08:36:31.992Z,10.82
2022-11-04T08:39:03.253Z,10.32
2022-11-04T08:41:34.790Z,10.07
2022-11-04T08:44:04.355Z,9.75
2022-11-04T08:46:36.452Z,10.38
2022-11-04T08:49:09.695Z,10.40
2022-11-04T08:51:44.103Z,12.50
2022-11-04T08:54:12.217Z,9.20
2022-11-04T08:56:40.599Z,9.73
2022-11-04T08:59:08.648Z,10.68
2022-11-04T09:01:37.050Z,9.95
2022-11-04T09:04:05.893Z,10.15
2022-11-04T09:06:39.780Z,9.83
2022-11-04T09:09:09.893Z,9.95
2022-11-04T09:11:40.842Z,9.50
2022-11-04T09:14:11.838Z,9.52
2022-11-04T09:16:41.817Z,9.27
2022-11-04T09:19:19.207Z,9.32
2022-11-04T09:21:48.360Z,9.52
2022-11-04T09:24:15.926Z,10.40
2022-11-04T09:26:44.812Z,10.02
2022-11-04T09:29:12.351Z,9.53
2022-11-04T09:31:40.500Z,10.27
2022-11-04T09:34:09.229Z,9.60
2022-11-04T09:36:38.332Z,10.30
2022-11-04T09:39:06.087Z,8.65
2022-11-04T09:41:52.808Z,8.55
2022-11-04T09:44:29.283Z,9.48
2022-11-04T09:47:04.543Z,8.23
2022-11-04T09:49:39.446Z,8.02
2022-11-04T09:52:19.234Z,9.00
2022-11-04T09:55:12.194Z,8.25
2022-11-04T09:57:40.111Z,8.73
2022-11-04T10:00:16.143Z,9.40
2022-11-04T10:02:52.664Z,8.50
2022-11-04T10:06:00.387Z,8.20
2022-11-04T10:08:46.047Z,7.18
2022-11-04T10:11:36.230Z,6.55
2022-11-04T10:14:31.393Z,6.65
2022-11-04T10:17:14.192Z,6.75
2022-11-04T10:22:29.227Z,6.45
2022-11-04T10:25:16.587Z,6.05
2022-11-04T10:27:47.357Z,6.07
2022-11-04T10:30:21.530Z,5.95
2022-11-04T10:33:16.810Z,6.30
2022-11-04T10:35:50.113Z,6.18
2022-11-04T10:38:45.314Z,7.53
2022-11-04T10:41:30.165Z,9.55
2022-11-04T10:44:09.135Z,6.90
2022-11-04T10:46:44.196Z,5.93
2022-11-04T10:50:06.857Z,5.95
2022-11-04T10:52:35.479Z,5.22
2022-11-04T10:55:04.270Z,6.82
2022-11-04T10:57:32.975Z,6.73
2022-11-04T11:00:03.381Z,5.97
2022-11-04T11:02:38.618Z,6.47
2022-11-04T11:05:18.506Z,7.00
2022-11-04T11:07:54.856Z,5.80
2022-11-04T11:10:29.820Z,7.25
2022-11-04T11:13:08.206Z,5.65
2022-11-04T11:15:38.794Z,5.85
2022-11-04T11:18:06.539Z,5.22
2022-11-04T11:20:37.833Z,6.43
2022-11-04T11:23:10.140Z,6.35
2022-11-04T11:25:59.725Z,5.97
2022-11-04T11:28:27.996Z,5.53
2022-11-04T11:30:58.900Z,5.18
2022-11-04T11:33:38.288Z,5.70
2022-11-04T11:36:31.329Z,5.20
2022-11-04T11:39:01.426Z,5.10
2022-11-04T11:41:31.761Z,5.60
2022-11-04T11:44:07.802Z,4.93
2022-11-04T11:46:38.155Z,5.35
2022-11-04T11:49:22.890Z,5.63
2022-11-04T11:51:50.914Z,6.07
2022-11-04T11:54:33.874Z,5.70
2022-11-04T11:57:25.533Z,5.57
2022-11-04T12:03:03.117Z,5.68
2022-11-04T12:11:32.367Z,5.43
2022-11-04T12:14:05.899Z,5.03
2022-11-04T12:16:57.131Z,5.93
2022-11-04T12:19:37.919Z,5.53
2022-11-04T12:22:32.822Z,5.68
2022-11-04T12:25:23.010Z,5.65
2022-11-04T12:28:24.395Z,5.00
2022-11-04T12:31:17.638Z,5.03
2022-11-04T12:34:20.554Z,5.75
2022-11-04T12:37:04.334Z,6.05
2022-11-04T12:39:56.580Z,6.10
2022-11-04T12:42:51.299Z,5.68
2022-11-04T12:45:46.605Z,5.65
2022-11-04T12:48:55.893Z,5.50
2022-11-04T12:51:31.732Z,5.10
2022-11-04T12:54:23.753Z,4.88
2022-11-04T12:57:09.097Z,5.22
2022-11-04T13:00:06.400Z,4.80
2022-11-04T13:02:40.906Z,5.40
2022-11-04T13:05:13.997Z,4.88
2022-11-04T13:07:59.184Z,4.68
2022-11-04T13:10:55.829Z,4.70
2022-11-04T13:13:33.290Z,5.10
2022-11-04T13:16:12.467Z,4.68
2022-11-04T13:18:41.438Z,4.78
2022-11-04T13:21:18.508Z,4.45
2022-11-04T13:24:14.628Z,4.55
2022-11-04T13:26:42.533Z,4.55
2022-11-04T13:29:16.115Z,4.22
2022-11-04T13:31:51.273Z,4.45
2022-11-04T13:34:37.711Z,4.38
2022-11-04T13:37:16.880Z,3.63
2022-11-04T13:39:46.587Z,4.05
2022-11-04T13:43:27.119Z,4.60
2022-11-04T13:45:56.778Z,4.38
2022-11-04T13:48:29.182Z,7.20
2022-11-04T13:51:00.987Z,5.60
2022-11-04T13:53:57.913Z,5.05
2022-11-04T13:56:45.807Z,5.00
2022-11-04T13:59:34.028Z,7.45
2022-11-04T14:02:19.974Z,5.68
2022-11-04T14:04:47.918Z,6.07
2022-11-04T14:07:18.173Z,5.65
2022-11-04T14:09:54.809Z,7.05
2022-11-04T14:12:30.870Z,7.65
2022-11-04T14:15:10.837Z,10.25
2022-11-04T14:17:38.710Z,10.95
2022-11-04T14:20:06.682Z,12.98
2022-11-04T14:22:49.530Z,12.70
2022-11-04T14:25:41.344Z,12.40
2022-11-04T14:28:15.138Z,13.32
2022-11-04T14:30:53.831Z,13.10
2022-11-04T14:33:23.353Z,11.88
2022-11-04T14:35:53.813Z,11.33
2022-11-04T14:38:34.049Z,12.43
2022-11-04T14:41:22.849Z,11.60
2022-11-04T14:43:52.498Z,10.80
2022-11-04T14:46:40.626Z,10.18
2022-11-04T14:49:52.219Z,10.13
2022-11-04T14:52:46.253Z,9.18
2022-11-04T14:55:24.437Z,37.80
2022-11-04T14:58:13.808Z,10.90
2022-11-04T15:00:50.669Z,9.38
2022-11-04T15:04:08.827Z,9.02
2022-11-04T15:06:11.151Z,9.18
2022-11-04T15:11:17.724Z,8.52
2022-11-04T15:13:49.330Z,7.07
2022-11-04T15:16:28.802Z,7.15
2022-11-04T15:18:59.336Z,7.50
2022-11-04T15:21:32.034Z,7.97
2022-11-04T15:24:01.709Z,8.27
2022-11-04T15:26:34.949Z,7.82
2022-11-04T15:29:09.618Z,7.90
2022-11-04T15:31:50.634Z,7.68
2022-11-04T15:34:19.295Z,8.30
2022-11-04T15:36:49.418Z,7.35
2022-11-04T15:39:26.764Z,7.03
2022-11-04T15:42:18.339Z,7.10
2022-11-04T15:44:50.324Z,7.22
2022-11-04T15:47:18.180Z,6.80
2022-11-04T15:49:48.030Z,6.80
2022-11-04T15:54:51.798Z,6.30
2022-11-04T15:57:33.055Z,7.50
2022-11-04T16:00:07.372Z,8.40
2022-11-04T16:03:01.190Z,6.43
2022-11-04T16:05:33.401Z,6.90
2022-11-04T16:08:33.887Z,6.57
2022-11-04T16:11:16.797Z,7.07
2022-11-04T16:13:45.588Z,6.72
2022-11-04T16:16:27.901Z,7.07
2022-11-04T16:18:59.420Z,6.95
2022-11-04T16:21:33.528Z,7.22
2022-11-04T16:24:17.624Z,7.40
2022-11-04T16:26:46.841Z,6.45
2022-11-04T16:29:22.819Z,6.95
2022-11-04T16:32:08.531Z,7.05
2022-11-04T16:34:37.467Z,6.07
2022-11-04T16:37:05.191Z,6.03
2022-11-04T16:39:33.304Z,6.35
2022-11-04T16:42:00.969Z,6.53
2022-11-04T16:44:28.793Z,6.80
2022-11-04T16:46:59.556Z,6.13
2022-11-04T16:49:27.219Z,6.45
2022-11-04T16:51:57.089Z,6.07
2022-11-04T16:54:25.139Z,5.72
2022-11-04T16:56:54.564Z,5.93
2022-11-04T16:59:22.544Z,6.43
2022-11-04T17:01:50.201Z,6.65
2022-11-04T17:04:17.859Z,6.35
2022-11-04T17:06:46.401Z,6.70
2022-11-04T17:09:20.645Z,6.47
2022-11-04T17:11:49.427Z,6.50
2022-11-04T17:14:18.008Z,6.78
2022-11-04T17:16:46.848Z,6.22
2022-11-04T17:19:17.634Z,6.45
2022-11-04T17:21:47.278Z,6.15
2022-11-04T17:24:15.018Z,7.47
2022-11-04T17:26:43.816Z,7.05
2022-11-04T17:29:15.991Z,8.20
2022-11-04T17:31:45.446Z,8.07
2022-11-04T17:34:13.070Z,7.97
2022-11-04T17:36:41.692Z,8.30
2022-11-04T17:39:09.328Z,7.50
2022-11-04T17:41:55.615Z,7.32
2022-11-04T17:44:23.322Z,7.28
2022-11-04T17:46:51.618Z,7.10
2022-11-04T17:49:24.694Z,6.35
2022-11-04T17:51:58.589Z,6.63
2022-11-04T17:54:28.865Z,6.63
2022-11-04T17:56:57.779Z,6.55
2022-11-04T17:59:25.916Z,6.93
2022-11-04T18:01:53.918Z,6.88
2022-11-04T18:04:23.340Z,6.72
2022-11-04T18:06:51.276Z,6.97
2022-11-04T18:09:19.025Z,6.97
2022-11-04T18:12:06.336Z,6.60
2022-11-04T18:14:34.008Z,6.47
2022-11-04T18:17:03.165Z,6.55
2022-11-04T18:19:31.428Z,7.22
2022-11-04T18:22:00.886Z,7.05
2022-11-04T18:24:29.063Z,7.03
2022-11-04T18:26:59.469Z,7.67
2022-11-04T18:29:27.657Z,7.00
2022-11-04T18:31:55.898Z,7.47
2022-11-04T18:34:23.559Z,7.25
2022-11-04T18:36:51.559Z,7.18
2022-11-04T18:39:19.680Z,7.28
2022-11-04T18:41:47.445Z,6.93
2022-11-04T18:44:20.437Z,6.68
2022-11-04T18:46:49.762Z,7.00
2022-11-04T18:49:18.417Z,6.67
2022-11-04T18:51:47.147Z,6.70
2022-11-04T18:54:15.166Z,6.78
2022-11-04T18:56:42.787Z,6.13
2022-11-04T18:59:12.954Z,7.07
2022-11-04T19:01:42.321Z,6.80
2022-11-04T19:04:10.167Z,7.20
2022-11-04T19:06:41.792Z,6.53
2022-11-04T19:09:45.277Z,7.45
2022-11-04T19:12:19.003Z,7.75
2022-11-04T19:14:46.773Z,8.07
2022-11-04T19:17:15.055Z,8.02
2022-11-04T19:19:43.681Z,7.45
2022-11-04T19:22:11.824Z,7.68
2022-11-04T19:24:39.894Z,8.35
2022-11-04T19:27:08.655Z,8.00
2022-11-04T19:29:36.339Z,8.40
2022-11-04T19:32:06.260Z,8.10
2022-11-04T19:34:37.470Z,8.57
2022-11-04T19:37:05.347Z,9.23
2022-11-04T19:39:32.921Z,8.15
2022-11-04T19:42:19.190Z,9.60
2022-11-04T19:44:46.867Z,9.10
2022-11-04T19:47:14.770Z,10.93
2022-11-04T19:49:42.455Z,10.98
2022-11-04T19:52:10.012Z,11.38
2022-11-04T19:54:37.673Z,13.30
2022-11-04T19:57:05.915Z,14.48
2022-11-04T19:59:33.563Z,14.63
2022-11-04T20:02:01.472Z,15.20
2022-11-04T20:04:29.612Z,15.40
2022-11-04T20:06:57.143Z,15.68
2022-11-04T20:09:26.179Z,14.55
2022-11-04T20:12:12.257Z,15.45
2022-11-04T20:14:42.542Z,16.75
2022-11-04T20:17:12.557Z,18.58
2022-11-04T20:19:40.391Z,17.38
2022-11-04T20:22:08.036Z,17.95
2022-11-04T20:24:35.718Z,18.35
2022-11-04T20:27:03.560Z,18.27
2022-11-04T20:29:31.367Z,20.15
2022-11-04T20:31:59.212Z,21.40
2022-11-04T20:34:32.553Z,17.52
2022-11-04T20:37:01.094Z,17.15
2022-11-04T20:39:28.913Z,17.20
2022-11-04T20:41:56.736Z,17.65
2022-11-04T20:44:24.838Z,16.83
2022-11-04T20:46:52.523Z,16.60
2022-11-04T20:49:20.252Z,15.88
2022-11-04T20:51:54.645Z,16.13
2022-11-04T20:54:23.475Z,15.80
2022-11-04T20:56:51.867Z,16.17
2022-11-04T20:59:19.572Z,17.00
2022-11-04T21:01:48.794Z,17.13
2022-11-04T21:04:20.781Z,16.15
2022-11-04T21:06:51.295Z,16.73
2022-11-04T21:09:21.267Z,16.75
2022-11-04T21:11:52.938Z,17.40
2022-11-04T21:14:21.943Z,18.40
2022-11-04T21:16:50.059Z,17.60
2022-11-04T21:19:17.907Z,17.90
2022-11-04T21:21:46.918Z,18.65
2022-11-04T21:24:15.919Z,18.23
2022-11-04T21:26:44.501Z,17.00
2022-11-04T21:29:15.268Z,17.42
2022-11-04T21:31:44.602Z,17.70
2022-11-04T21:34:12.562Z,19.30
2022-11-04T21:36:40.642Z,18.35
2022-11-04T21:39:11.165Z,17.25
2022-11-04T21:41:39.360Z,17.00
2022-11-04T21:44:09.963Z,16.75
2022-11-04T21:46:38.200Z,17.73
2022-11-04T21:49:06.221Z,16.95
2022-11-04T21:51:34.861Z,16.70
2022-11-04T21:54:06.311Z,17.40
2022-11-04T21:56:34.826Z,17.48
2022-11-04T21:59:03.453Z,16.83
2022-11-04T22:01:33.124Z,26.35
2022-11-04T22:04:02.000Z,17.08
2022-11-04T22:06:34.622Z,17.48
2022-11-04T22:09:07.119Z,17.00
2022-11-04T22:11:37.380Z,18.27
2022-11-04T22:14:08.250Z,18.63
2022-11-04T22:16:38.824Z,17.52
2022-11-04T22:19:13.686Z,18.63
2022-11-04T22:21:43.898Z,18.88
2022-11-04T22:24:13.331Z,19.00
2022-11-04T22:26:41.256Z,18.30
2022-11-04T22:29:09.463Z,17.65
2022-11-04T22:31:41.147Z,18.95
2022-11-04T22:34:11.513Z,18.48
2022-11-04T22:36:40.305Z,20.38
2022-11-04T22:39:15.031Z,19.45
2022-11-04T22:41:46.363Z,19.58
2022-11-04T22:44:15.162Z,20.55
2022-11-04T22:46:42.956Z,19.52
2022-11-04T22:49:13.071Z,19.05
2022-11-04T22:51:42.212Z,19.08
2022-11-04T22:54:10.374Z,18.50
2022-11-04T22:56:38.159Z,18.50
2022-11-04T22:59:05.883Z,19.75
2022-11-04T23:01:34.167Z,18.40
2022-11-04T23:04:02.165Z,19.38
2022-11-04T23:06:30.281Z,20.20
2022-11-04T23:09:01.151Z,18.42
2022-11-04T23:11:49.432Z,19.05
2022-11-04T23:14:40.125Z,19.13
2022-11-04T23:17:38.571Z,19.73
2022-11-04T23:20:09.924Z,19.05
2022-11-04T23:22:56.351Z,16.92
2022-11-04T23:25:24.893Z,17.02
2022-11-04T23:28:13.617Z,17.60
2022-11-04T23:30:44.603Z,16.90
2022-11-04T23:33:15.265Z,18.88
2022-11-04T23:36:06.988Z,18.10
2022-11-04T23:38:35.723Z,18.27
2022-11-04T23:41:25.390Z,16.95
2022-11-04T23:43:53.669Z,19.38
2022-11-04T23:49:30.961Z,18.45
2022-11-04T23:52:17.544Z,19.38
2022-11-04T23:55:03.628Z,20.58
2022-11-04T23:57:50.190Z,20.85
